sensor_id;sensor_type;location;lat;lon;timestamp;P1;durP1;ratioP1;P2;durP2;ratioP2
75450;SDS011;64029;48.244;9.188;2023-02-01T00:02:02;4.00;;;3.00;;
75450;SDS011;64029;48.244;9.188;2023-02-01T00:04:29;3.93;;;2.80;;
75450;SDS011;64029;48.244;9.188;2023-02-01T00:06:56;8.13;;;3.70;;
75450;SDS011;64029;48.244;9.188;2023-02-01T00:09:23;5.60;;;3.90;;
75450;SDS011;64029;48.244;9.188;2023-02-01T00:11:50;6.03;;;4.27;;
75450;SDS011;64029;48.244;9.188;2023-02-01T00:14:18;5.43;;;3.53;;
75450;SDS011;64029;48.244;9.188;2023-02-01T00:16:45;5.20;;;3.53;;
75450;SDS011;64029;48.244;9.188;2023-02-01T00:19:12;4.70;;;3.60;;
75450;SDS011;64029;48.244;9.188;2023-02-01T00:21:41;4.70;;;3.30;;
75450;SDS011;64029;48.244;9.188;2023-02-01T00:24:09;4.43;;;3.17;;
75450;SDS011;64029;48.244;9.188;2023-02-01T00:26:37;4.27;;;3.30;;
75450;SDS011;64029;48.244;9.188;2023-02-01T00:29:09;4.63;;;3.47;;
75450;SDS011;64029;48.244;9.188;2023-02-01T00:31:38;5.30;;;3.27;;
75450;SDS011;64029;48.244;9.188;2023-02-01T00:34:05;4.30;;;3.20;;
75450;SDS011;64029;48.244;9.188;2023-02-01T00:36:33;3.93;;;3.53;;
75450;SDS011;64029;48.244;9.188;2023-02-01T00:39:00;9.27;;;4.50;;
75450;SDS011;64029;48.244;9.188;2023-02-01T00:41:27;5.23;;;3.63;;
75450;SDS011;64029;48.244;9.188;2023-02-01T00:43:54;5.63;;;3.30;;
75450;SDS011;64029;48.244;9.188;2023-02-01T00:46:21;4.20;;;3.50;;
75450;SDS011;64029;48.244;9.188;2023-02-01T00:48:49;3.80;;;3.27;;
75450;SDS011;64029;48.244;9.188;2023-02-01T00:51:17;7.40;;;3.50;;
75450;SDS011;64029;48.244;9.188;2023-02-01T00:53:45;4.00;;;3.60;;
75450;SDS011;64029;48.244;9.188;2023-02-01T00:56:11;5.50;;;3.23;;
75450;SDS011;64029;48.244;9.188;2023-02-01T00:58:38;4.23;;;3.27;;
75450;SDS011;64029;48.244;9.188;2023-02-01T01:01:06;4.30;;;3.37;;
75450;SDS011;64029;48.244;9.188;2023-02-01T01:03:35;3.50;;;2.93;;
75450;SDS011;64029;48.244;9.188;2023-02-01T01:06:05;3.77;;;3.07;;
75450;SDS011;64029;48.244;9.188;2023-02-01T01:08:33;3.43;;;2.50;;
75450;SDS011;64029;48.244;9.188;2023-02-01T01:11:03;2.80;;;2.10;;
75450;SDS011;64029;48.244;9.188;2023-02-01T01:13:32;3.20;;;2.27;;
75450;SDS011;64029;48.244;9.188;2023-02-01T01:16:02;3.23;;;2.30;;
75450;SDS011;64029;48.244;9.188;2023-02-01T01:18:30;3.10;;;2.00;;
75450;SDS011;64029;48.244;9.188;2023-02-01T01:20:59;1.90;;;1.80;;
75450;SDS011;64029;48.244;9.188;2023-02-01T01:23:28;3.50;;;1.87;;
75450;SDS011;64029;48.244;9.188;2023-02-01T01:25:55;2.10;;;1.90;;
75450;SDS011;64029;48.244;9.188;2023-02-01T01:28:21;1.97;;;1.77;;
75450;SDS011;64029;48.244;9.188;2023-02-01T01:30:48;2.03;;;1.93;;
75450;SDS011;64029;48.244;9.188;2023-02-01T01:33:15;4.40;;;2.20;;
75450;SDS011;64029;48.244;9.188;2023-02-01T01:35:42;2.90;;;2.27;;
75450;SDS011;64029;48.244;9.188;2023-02-01T01:38:09;2.40;;;1.87;;
75450;SDS011;64029;48.244;9.188;2023-02-01T01:40:38;2.70;;;1.67;;
75450;SDS011;64029;48.244;9.188;2023-02-01T01:43:10;2.30;;;1.73;;
75450;SDS011;64029;48.244;9.188;2023-02-01T01:45:40;2.00;;;1.60;;
75450;SDS011;64029;48.244;9.188;2023-02-01T01:48:07;2.00;;;1.50;;
75450;SDS011;64029;48.244;9.188;2023-02-01T01:50:39;1.87;;;1.70;;
75450;SDS011;64029;48.244;9.188;2023-02-01T01:53:13;3.77;;;1.73;;
75450;SDS011;64029;48.244;9.188;2023-02-01T01:55:45;3.00;;;1.90;;
75450;SDS011;64029;48.244;9.188;2023-02-01T01:58:16;1.60;;;1.50;;
75450;SDS011;64029;48.244;9.188;2023-02-01T02:00:45;1.67;;;1.50;;
75450;SDS011;64029;48.244;9.188;2023-02-01T02:03:14;1.90;;;1.57;;
75450;SDS011;64029;48.244;9.188;2023-02-01T02:05:43;1.50;;;1.40;;
75450;SDS011;64029;48.244;9.188;2023-02-01T02:08:12;1.50;;;1.40;;
75450;SDS011;64029;48.244;9.188;2023-02-01T02:10:39;3.20;;;1.30;;
75450;SDS011;64029;48.244;9.188;2023-02-01T02:13:25;2.63;;;1.50;;
75450;SDS011;64029;48.244;9.188;2023-02-01T02:15:57;2.80;;;1.47;;
75450;SDS011;64029;48.244;9.188;2023-02-01T02:18:34;1.53;;;1.40;;
75450;SDS011;64029;48.244;9.188;2023-02-01T02:21:11;1.97;;;1.40;;
75450;SDS011;64029;48.244;9.188;2023-02-01T02:23:49;2.90;;;1.70;;
75450;SDS011;64029;48.244;9.188;2023-02-01T02:26:41;1.80;;;1.70;;
75450;SDS011;64029;48.244;9.188;2023-02-01T02:29:44;1.40;;;1.30;;
75450;SDS011;64029;48.244;9.188;2023-02-01T02:35:37;1.90;;;1.57;;
75450;SDS011;64029;48.244;9.188;2023-02-01T02:38:13;1.80;;;1.50;;
75450;SDS011;64029;48.244;9.188;2023-02-01T02:40:46;1.93;;;1.37;;
75450;SDS011;64029;48.244;9.188;2023-02-01T02:43:18;1.63;;;1.53;;
75450;SDS011;64029;48.244;9.188;2023-02-01T02:46:06;1.70;;;1.30;;
75450;SDS011;64029;48.244;9.188;2023-02-01T02:49:00;1.60;;;1.30;;
75450;SDS011;64029;48.244;9.188;2023-02-01T02:51:32;1.17;;;1.07;;
75450;SDS011;64029;48.244;9.188;2023-02-01T02:54:22;1.20;;;1.10;;
75450;SDS011;64029;48.244;9.188;2023-02-01T02:57:11;1.10;;;1.00;;
75450;SDS011;64029;48.244;9.188;2023-02-01T02:59:59;1.70;;;1.20;;
75450;SDS011;64029;48.244;9.188;2023-02-01T03:02:46;1.47;;;1.20;;
75450;SDS011;64029;48.244;9.188;2023-02-01T03:05:32;1.10;;;0.90;;
75450;SDS011;64029;48.244;9.188;2023-02-01T03:08:02;1.30;;;1.20;;
75450;SDS011;64029;48.244;9.188;2023-02-01T03:10:35;1.30;;;1.10;;
75450;SDS011;64029;48.244;9.188;2023-02-01T03:13:11;1.37;;;1.27;;
75450;SDS011;64029;48.244;9.188;2023-02-01T03:15:42;1.27;;;1.10;;
75450;SDS011;64029;48.244;9.188;2023-02-01T03:18:16;1.00;;;0.90;;
75450;SDS011;64029;48.244;9.188;2023-02-01T03:20:49;1.20;;;1.10;;
75450;SDS011;64029;48.244;9.188;2023-02-01T03:23:21;1.23;;;1.13;;
75450;SDS011;64029;48.244;9.188;2023-02-01T03:25:51;1.50;;;1.40;;
75450;SDS011;64029;48.244;9.188;2023-02-01T03:28:21;1.20;;;1.10;;
75450;SDS011;64029;48.244;9.188;2023-02-01T03:30:50;1.50;;;1.10;;
75450;SDS011;64029;48.244;9.188;2023-02-01T03:33:18;1.10;;;1.00;;
75450;SDS011;64029;48.244;9.188;2023-02-01T03:35:48;1.00;;;0.90;;
75450;SDS011;64029;48.244;9.188;2023-02-01T03:38:22;0.90;;;0.90;;
75450;SDS011;64029;48.244;9.188;2023-02-01T03:40:54;1.20;;;0.97;;
75450;SDS011;64029;48.244;9.188;2023-02-01T03:43:27;0.80;;;0.80;;
75450;SDS011;64029;48.244;9.188;2023-02-01T03:46:00;1.00;;;0.90;;
75450;SDS011;64029;48.244;9.188;2023-02-01T03:48:32;1.10;;;1.00;;
75450;SDS011;64029;48.244;9.188;2023-02-01T03:51:00;1.10;;;1.00;;
75450;SDS011;64029;48.244;9.188;2023-02-01T03:53:32;1.73;;;1.00;;
75450;SDS011;64029;48.244;9.188;2023-02-01T03:56:02;1.20;;;1.10;;
75450;SDS011;64029;48.244;9.188;2023-02-01T03:58:30;1.03;;;0.93;;
75450;SDS011;64029;48.244;9.188;2023-02-01T04:00:57;1.37;;;1.27;;
75450;SDS011;64029;48.244;9.188;2023-02-01T04:03:26;1.10;;;1.00;;
75450;SDS011;64029;48.244;9.188;2023-02-01T04:05:53;1.37;;;1.00;;
75450;SDS011;64029;48.244;9.188;2023-02-01T04:08:21;1.23;;;1.13;;
75450;SDS011;64029;48.244;9.188;2023-02-01T04:10:49;1.40;;;1.30;;
75450;SDS011;64029;48.244;9.188;2023-02-01T04:13:16;1.30;;;1.20;;
75450;SDS011;64029;48.244;9.188;2023-02-01T04:15:43;1.10;;;1.00;;
75450;SDS011;64029;48.244;9.188;2023-02-01T04:18:10;2.90;;;1.33;;
75450;SDS011;64029;48.244;9.188;2023-02-01T04:20:37;1.60;;;1.50;;
75450;SDS011;64029;48.244;9.188;2023-02-01T04:23:04;1.27;;;1.10;;
75450;SDS011;64029;48.244;9.188;2023-02-01T04:25:31;1.40;;;1.30;;
75450;SDS011;64029;48.244;9.188;2023-02-01T04:27:59;1.73;;;1.30;;
75450;SDS011;64029;48.244;9.188;2023-02-01T04:30:25;1.83;;;1.50;;
75450;SDS011;64029;48.244;9.188;2023-02-01T04:32:52;3.70;;;1.37;;
75450;SDS011;64029;48.244;9.188;2023-02-01T04:35:19;1.50;;;1.40;;
75450;SDS011;64029;48.244;9.188;2023-02-01T04:37:46;1.30;;;1.20;;
75450;SDS011;64029;48.244;9.188;2023-02-01T04:40:13;1.50;;;1.40;;
75450;SDS011;64029;48.244;9.188;2023-02-01T04:42:40;1.23;;;1.13;;
75450;SDS011;64029;48.244;9.188;2023-02-01T04:45:09;6.57;;;4.70;;
75450;SDS011;64029;48.244;9.188;2023-02-01T04:47:36;1.80;;;1.50;;
75450;SDS011;64029;48.244;9.188;2023-02-01T04:50:03;2.10;;;1.73;;
75450;SDS011;64029;48.244;9.188;2023-02-01T04:52:32;2.00;;;1.80;;
75450;SDS011;64029;48.244;9.188;2023-02-01T04:54:59;42.00;;;20.27;;
75450;SDS011;64029;48.244;9.188;2023-02-01T04:57:28;65.63;;;35.43;;
75450;SDS011;64029;48.244;9.188;2023-02-01T04:59:54;56.63;;;29.70;;
75450;SDS011;64029;48.244;9.188;2023-02-01T05:02:23;43.10;;;23.80;;
75450;SDS011;64029;48.244;9.188;2023-02-01T05:04:49;26.70;;;15.37;;
75450;SDS011;64029;48.244;9.188;2023-02-01T05:07:16;11.20;;;7.43;;
75450;SDS011;64029;48.244;9.188;2023-02-01T05:09:43;9.70;;;5.67;;
75450;SDS011;64029;48.244;9.188;2023-02-01T05:12:10;15.40;;;7.97;;
75450;SDS011;64029;48.244;9.188;2023-02-01T05:14:54;7.30;;;4.50;;
75450;SDS011;64029;48.244;9.188;2023-02-01T05:17:22;8.23;;;5.00;;
75450;SDS011;64029;48.244;9.188;2023-02-01T05:19:49;8.00;;;5.20;;
75450;SDS011;64029;48.244;9.188;2023-02-01T05:22:16;10.73;;;5.47;;
75450;SDS011;64029;48.244;9.188;2023-02-01T05:24:43;12.53;;;7.40;;
75450;SDS011;64029;48.244;9.188;2023-02-01T05:27:09;8.67;;;6.10;;
75450;SDS011;64029;48.244;9.188;2023-02-01T05:29:36;9.67;;;6.40;;
75450;SDS011;64029;48.244;9.188;2023-02-01T05:32:03;7.37;;;4.00;;
75450;SDS011;64029;48.244;9.188;2023-02-01T05:34:31;6.57;;;5.40;;
75450;SDS011;64029;48.244;9.188;2023-02-01T05:36:58;5.57;;;4.40;;
75450;SDS011;64029;48.244;9.188;2023-02-01T05:39:25;4.43;;;3.13;;
75450;SDS011;64029;48.244;9.188;2023-02-01T05:41:52;3.37;;;2.30;;
75450;SDS011;64029;48.244;9.188;2023-02-01T05:44:18;3.77;;;1.77;;
75450;SDS011;64029;48.244;9.188;2023-02-01T05:46:45;2.30;;;2.10;;
75450;SDS011;64029;48.244;9.188;2023-02-01T05:49:12;2.17;;;1.50;;
75450;SDS011;64029;48.244;9.188;2023-02-01T05:51:40;4.83;;;2.03;;
75450;SDS011;64029;48.244;9.188;2023-02-01T05:54:08;2.17;;;1.93;;
75450;SDS011;64029;48.244;9.188;2023-02-01T05:56:35;1.90;;;1.50;;
75450;SDS011;64029;48.244;9.188;2023-02-01T05:59:02;2.50;;;1.50;;
75450;SDS011;64029;48.244;9.188;2023-02-01T06:01:29;1.63;;;1.53;;
75450;SDS011;64029;48.244;9.188;2023-02-01T06:03:56;3.53;;;1.60;;
75450;SDS011;64029;48.244;9.188;2023-02-01T06:06:22;1.97;;;1.87;;
75450;SDS011;64029;48.244;9.188;2023-02-01T06:08:51;1.50;;;1.37;;
75450;SDS011;64029;48.244;9.188;2023-02-01T06:11:17;2.00;;;1.90;;
75450;SDS011;64029;48.244;9.188;2023-02-01T06:13:44;2.77;;;1.70;;
75450;SDS011;64029;48.244;9.188;2023-02-01T06:16:11;2.63;;;1.63;;
75450;SDS011;64029;48.244;9.188;2023-02-01T06:18:40;1.70;;;1.60;;
75450;SDS011;64029;48.244;9.188;2023-02-01T06:21:07;2.83;;;1.60;;
75450;SDS011;64029;48.244;9.188;2023-02-01T06:23:34;2.50;;;1.83;;
75450;SDS011;64029;48.244;9.188;2023-02-01T06:26:03;1.57;;;1.30;;
75450;SDS011;64029;48.244;9.188;2023-02-01T06:28:33;2.23;;;1.70;;
75450;SDS011;64029;48.244;9.188;2023-02-01T06:31:02;2.43;;;1.60;;
75450;SDS011;64029;48.244;9.188;2023-02-01T06:33:31;2.17;;;1.90;;
75450;SDS011;64029;48.244;9.188;2023-02-01T06:35:59;5.00;;;1.50;;
75450;SDS011;64029;48.244;9.188;2023-02-01T06:38:28;1.83;;;1.30;;
75450;SDS011;64029;48.244;9.188;2023-02-01T06:40:56;1.60;;;1.50;;
75450;SDS011;64029;48.244;9.188;2023-02-01T06:43:25;1.70;;;1.60;;
75450;SDS011;64029;48.244;9.188;2023-02-01T06:45:53;1.80;;;1.70;;
75450;SDS011;64029;48.244;9.188;2023-02-01T06:48:25;2.10;;;1.90;;
75450;SDS011;64029;48.244;9.188;2023-02-01T06:50:51;1.60;;;1.50;;
75450;SDS011;64029;48.244;9.188;2023-02-01T06:53:18;2.03;;;1.40;;
75450;SDS011;64029;48.244;9.188;2023-02-01T06:55:51;2.60;;;1.63;;
75450;SDS011;64029;48.244;9.188;2023-02-01T06:58:18;2.83;;;1.57;;
75450;SDS011;64029;48.244;9.188;2023-02-01T07:00:46;2.90;;;1.93;;
75450;SDS011;64029;48.244;9.188;2023-02-01T07:03:13;2.17;;;1.87;;
75450;SDS011;64029;48.244;9.188;2023-02-01T07:05:40;1.77;;;1.63;;
75450;SDS011;64029;48.244;9.188;2023-02-01T07:08:07;2.90;;;2.20;;
75450;SDS011;64029;48.244;9.188;2023-02-01T07:10:34;2.13;;;1.77;;
75450;SDS011;64029;48.244;9.188;2023-02-01T07:13:01;3.50;;;2.00;;
75450;SDS011;64029;48.244;9.188;2023-02-01T07:15:28;2.17;;;1.90;;
75450;SDS011;64029;48.244;9.188;2023-02-01T07:17:56;2.77;;;2.20;;
75450;SDS011;64029;48.244;9.188;2023-02-01T07:20:28;3.70;;;2.80;;
75450;SDS011;64029;48.244;9.188;2023-02-01T07:22:55;5.43;;;2.03;;
75450;SDS011;64029;48.244;9.188;2023-02-01T07:25:22;4.53;;;2.17;;
75450;SDS011;64029;48.244;9.188;2023-02-01T07:27:49;6.70;;;2.07;;
75450;SDS011;64029;48.244;9.188;2023-02-01T07:30:16;5.93;;;3.23;;
75450;SDS011;64029;48.244;9.188;2023-02-01T07:32:43;8.93;;;2.37;;
75450;SDS011;64029;48.244;9.188;2023-02-01T07:35:12;4.77;;;2.30;;
75450;SDS011;64029;48.244;9.188;2023-02-01T07:37:39;3.27;;;2.00;;
75450;SDS011;64029;48.244;9.188;2023-02-01T07:40:07;1.90;;;1.80;;
75450;SDS011;64029;48.244;9.188;2023-02-01T07:42:34;3.03;;;2.50;;
75450;SDS011;64029;48.244;9.188;2023-02-01T07:45:01;3.00;;;2.10;;
75450;SDS011;64029;48.244;9.188;2023-02-01T07:47:28;2.87;;;1.90;;
75450;SDS011;64029;48.244;9.188;2023-02-01T07:49:55;1.73;;;1.60;;
75450;SDS011;64029;48.244;9.188;2023-02-01T07:52:23;2.03;;;1.83;;
75450;SDS011;64029;48.244;9.188;2023-02-01T07:54:53;1.93;;;1.70;;
75450;SDS011;64029;48.244;9.188;2023-02-01T07:57:20;4.20;;;2.43;;
75450;SDS011;64029;48.244;9.188;2023-02-01T07:59:46;2.03;;;1.83;;
75450;SDS011;64029;48.244;9.188;2023-02-01T08:02:31;2.20;;;1.70;;
75450;SDS011;64029;48.244;9.188;2023-02-01T08:05:00;2.30;;;2.00;;
75450;SDS011;64029;48.244;9.188;2023-02-01T08:07:28;2.93;;;2.63;;
75450;SDS011;64029;48.244;9.188;2023-02-01T08:09:55;2.40;;;2.20;;
75450;SDS011;64029;48.244;9.188;2023-02-01T08:12:21;3.97;;;2.57;;
75450;SDS011;64029;48.244;9.188;2023-02-01T08:14:48;3.13;;;2.40;;
75450;SDS011;64029;48.244;9.188;2023-02-01T08:17:15;3.10;;;2.40;;
75450;SDS011;64029;48.244;9.188;2023-02-01T08:19:42;2.97;;;2.67;;
75450;SDS011;64029;48.244;9.188;2023-02-01T08:22:09;3.27;;;2.97;;
75450;SDS011;64029;48.244;9.188;2023-02-01T08:24:37;2.87;;;2.67;;
75450;SDS011;64029;48.244;9.188;2023-02-01T08:27:05;3.97;;;2.93;;
75450;SDS011;64029;48.244;9.188;2023-02-01T08:29:32;4.87;;;2.60;;
75450;SDS011;64029;48.244;9.188;2023-02-01T08:31:59;2.73;;;2.53;;
75450;SDS011;64029;48.244;9.188;2023-02-01T08:34:26;2.87;;;2.23;;
75450;SDS011;64029;48.244;9.188;2023-02-01T08:36:52;4.10;;;2.60;;
75450;SDS011;64029;48.244;9.188;2023-02-01T08:39:23;3.13;;;2.27;;
75450;SDS011;64029;48.244;9.188;2023-02-01T08:41:51;2.47;;;2.27;;
75450;SDS011;64029;48.244;9.188;2023-02-01T08:44:32;2.00;;;1.73;;
75450;SDS011;64029;48.244;9.188;2023-02-01T08:46:59;4.20;;;2.10;;
75450;SDS011;64029;48.244;9.188;2023-02-01T08:49:26;4.13;;;2.00;;
75450;SDS011;64029;48.244;9.188;2023-02-01T08:51:53;4.13;;;2.10;;
75450;SDS011;64029;48.244;9.188;2023-02-01T08:54:20;2.40;;;1.83;;
75450;SDS011;64029;48.244;9.188;2023-02-01T08:56:47;3.83;;;2.50;;
75450;SDS011;64029;48.244;9.188;2023-02-01T08:59:15;2.43;;;1.60;;
75450;SDS011;64029;48.244;9.188;2023-02-01T09:01:42;2.07;;;1.97;;
75450;SDS011;64029;48.244;9.188;2023-02-01T09:04:09;2.20;;;2.00;;
75450;SDS011;64029;48.244;9.188;2023-02-01T09:06:35;2.47;;;2.00;;
75450;SDS011;64029;48.244;9.188;2023-02-01T09:09:03;1.93;;;1.73;;
75450;SDS011;64029;48.244;9.188;2023-02-01T09:11:30;3.47;;;1.67;;
75450;SDS011;64029;48.244;9.188;2023-02-01T09:13:57;1.93;;;1.67;;
75450;SDS011;64029;48.244;9.188;2023-02-01T09:16:25;2.80;;;1.67;;
75450;SDS011;64029;48.244;9.188;2023-02-01T09:18:52;2.23;;;1.77;;
75450;SDS011;64029;48.244;9.188;2023-02-01T09:21:19;5.60;;;2.20;;
75450;SDS011;64029;48.244;9.188;2023-02-01T09:23:45;4.13;;;3.33;;
75450;SDS011;64029;48.244;9.188;2023-02-01T09:26:13;5.93;;;3.10;;
75450;SDS011;64029;48.244;9.188;2023-02-01T09:28:40;3.17;;;2.70;;
75450;SDS011;64029;48.244;9.188;2023-02-01T09:31:07;3.10;;;2.10;;
75450;SDS011;64029;48.244;9.188;2023-02-01T09:33:35;8.53;;;2.50;;
75450;SDS011;64029;48.244;9.188;2023-02-01T09:36:04;2.17;;;1.77;;
75450;SDS011;64029;48.244;9.188;2023-02-01T09:38:31;3.40;;;2.20;;
75450;SDS011;64029;48.244;9.188;2023-02-01T09:40:58;2.63;;;2.43;;
75450;SDS011;64029;48.244;9.188;2023-02-01T09:43:32;4.70;;;2.50;;
75450;SDS011;64029;48.244;9.188;2023-02-01T09:46:09;3.20;;;1.83;;
75450;SDS011;64029;48.244;9.188;2023-02-01T09:48:47;5.93;;;1.70;;
75450;SDS011;64029;48.244;9.188;2023-02-01T09:51:19;4.13;;;2.50;;
75450;SDS011;64029;48.244;9.188;2023-02-01T09:53:52;5.63;;;2.10;;
75450;SDS011;64029;48.244;9.188;2023-02-01T09:56:26;3.77;;;2.17;;
75450;SDS011;64029;48.244;9.188;2023-02-01T09:59:01;5.97;;;2.00;;
75450;SDS011;64029;48.244;9.188;2023-02-01T10:01:34;3.00;;;2.10;;
75450;SDS011;64029;48.244;9.188;2023-02-01T10:04:05;6.43;;;2.67;;
75450;SDS011;64029;48.244;9.188;2023-02-01T10:06:41;8.13;;;3.13;;
75450;SDS011;64029;48.244;9.188;2023-02-01T10:09:30;4.07;;;1.97;;
75450;SDS011;64029;48.244;9.188;2023-02-01T10:15:15;7.33;;;2.00;;
75450;SDS011;64029;48.244;9.188;2023-02-01T10:18:00;4.30;;;1.77;;
75450;SDS011;64029;48.244;9.188;2023-02-01T10:20:43;3.67;;;2.30;;
75450;SDS011;64029;48.244;9.188;2023-02-01T10:23:24;5.27;;;2.53;;
75450;SDS011;64029;48.244;9.188;2023-02-01T10:26:05;7.77;;;2.23;;
75450;SDS011;64029;48.244;9.188;2023-02-01T10:28:38;7.17;;;2.13;;
75450;SDS011;64029;48.244;9.188;2023-02-01T10:31:07;5.63;;;2.33;;
75450;SDS011;64029;48.244;9.188;2023-02-01T10:33:36;7.80;;;2.57;;
75450;SDS011;64029;48.244;9.188;2023-02-01T10:36:10;6.80;;;2.67;;
75450;SDS011;64029;48.244;9.188;2023-02-01T10:38:42;3.50;;;2.03;;
75450;SDS011;64029;48.244;9.188;2023-02-01T10:41:11;6.77;;;2.60;;
75450;SDS011;64029;48.244;9.188;2023-02-01T10:43:41;6.33;;;2.63;;
75450;SDS011;64029;48.244;9.188;2023-02-01T10:46:08;5.90;;;2.67;;
75450;SDS011;64029;48.244;9.188;2023-02-01T10:48:35;6.97;;;2.93;;
75450;SDS011;64029;48.244;9.188;2023-02-01T10:51:05;7.33;;;3.97;;
75450;SDS011;64029;48.244;9.188;2023-02-01T10:53:41;4.87;;;3.63;;
75450;SDS011;64029;48.244;9.188;2023-02-01T10:56:14;8.07;;;3.57;;
75450;SDS011;64029;48.244;9.188;2023-02-01T10:58:48;7.73;;;3.77;;
75450;SDS011;64029;48.244;9.188;2023-02-01T11:01:17;5.67;;;2.90;;
75450;SDS011;64029;48.244;9.188;2023-02-01T11:03:51;5.97;;;3.67;;
75450;SDS011;64029;48.244;9.188;2023-02-01T11:06:27;6.67;;;2.83;;
75450;SDS011;64029;48.244;9.188;2023-02-01T11:08:58;7.03;;;3.17;;
75450;SDS011;64029;48.244;9.188;2023-02-01T11:11:26;8.03;;;3.30;;
75450;SDS011;64029;48.244;9.188;2023-02-01T11:13:55;7.27;;;3.13;;
75450;SDS011;64029;48.244;9.188;2023-02-01T11:16:28;8.73;;;3.30;;
75450;SDS011;64029;48.244;9.188;2023-02-01T11:18:58;5.17;;;3.90;;
75450;SDS011;64029;48.244;9.188;2023-02-01T11:21:25;7.70;;;4.60;;
75450;SDS011;64029;48.244;9.188;2023-02-01T11:23:53;8.40;;;4.20;;
75450;SDS011;64029;48.244;9.188;2023-02-01T11:26:22;16.40;;;5.70;;
75450;SDS011;64029;48.244;9.188;2023-02-01T11:28:52;9.63;;;3.80;;
75450;SDS011;64029;48.244;9.188;2023-02-01T11:31:22;6.40;;;4.50;;
75450;SDS011;64029;48.244;9.188;2023-02-01T11:33:51;8.10;;;5.00;;
75450;SDS011;64029;48.244;9.188;2023-02-01T11:36:21;5.90;;;3.70;;
75450;SDS011;64029;48.244;9.188;2023-02-01T11:38:54;7.27;;;4.23;;
75450;SDS011;64029;48.244;9.188;2023-02-01T11:41:35;6.43;;;3.60;;
75450;SDS011;64029;48.244;9.188;2023-02-01T11:44:16;11.30;;;4.30;;
75450;SDS011;64029;48.244;9.188;2023-02-01T11:46:47;5.60;;;3.30;;
75450;SDS011;64029;48.244;9.188;2023-02-01T11:49:19;8.63;;;3.40;;
75450;SDS011;64029;48.244;9.188;2023-02-01T11:51:51;6.73;;;2.70;;
75450;SDS011;64029;48.244;9.188;2023-02-01T11:54:30;6.40;;;2.90;;
75450;SDS011;64029;48.244;9.188;2023-02-01T11:57:12;4.77;;;2.30;;
75450;SDS011;64029;48.244;9.188;2023-02-01T11:59:54;10.50;;;2.87;;
75450;SDS011;64029;48.244;9.188;2023-02-01T12:02:53;3.50;;;2.20;;
75450;SDS011;64029;48.244;9.188;2023-02-01T12:05:51;4.30;;;2.87;;
75450;SDS011;64029;48.244;9.188;2023-02-01T12:08:31;5.10;;;2.27;;
75450;SDS011;64029;48.244;9.188;2023-02-01T12:11:18;8.03;;;3.30;;
75450;SDS011;64029;48.244;9.188;2023-02-01T12:14:06;7.43;;;2.63;;
75450;SDS011;64029;48.244;9.188;2023-02-01T12:16:49;5.13;;;2.80;;
75450;SDS011;64029;48.244;9.188;2023-02-01T12:19:34;3.53;;;2.67;;
75450;SDS011;64029;48.244;9.188;2023-02-01T12:22:17;5.13;;;2.70;;
75450;SDS011;64029;48.244;9.188;2023-02-01T12:25:03;7.20;;;2.93;;
75450;SDS011;64029;48.244;9.188;2023-02-01T12:27:50;5.20;;;2.40;;
75450;SDS011;64029;48.244;9.188;2023-02-01T12:30:43;5.63;;;2.90;;
75450;SDS011;64029;48.244;9.188;2023-02-01T12:33:33;4.37;;;2.70;;
75450;SDS011;64029;48.244;9.188;2023-02-01T12:36:14;7.47;;;3.03;;
75450;SDS011;64029;48.244;9.188;2023-02-01T12:38:50;8.23;;;2.53;;
75450;SDS011;64029;48.244;9.188;2023-02-01T12:41:32;4.43;;;2.50;;
75450;SDS011;64029;48.244;9.188;2023-02-01T12:44:17;4.30;;;2.67;;
75450;SDS011;64029;48.244;9.188;2023-02-01T12:46:53;8.00;;;2.43;;
75450;SDS011;64029;48.244;9.188;2023-02-01T12:49:27;8.53;;;3.23;;
75450;SDS011;64029;48.244;9.188;2023-02-01T12:52:01;4.90;;;2.20;;
75450;SDS011;64029;48.244;9.188;2023-02-01T12:54:34;7.00;;;2.83;;
75450;SDS011;64029;48.244;9.188;2023-02-01T12:57:09;4.70;;;3.17;;
75450;SDS011;64029;48.244;9.188;2023-02-01T12:59:40;5.07;;;3.07;;
75450;SDS011;64029;48.244;9.188;2023-02-01T13:02:14;7.17;;;2.90;;
75450;SDS011;64029;48.244;9.188;2023-02-01T13:04:49;4.43;;;2.70;;
75450;SDS011;64029;48.244;9.188;2023-02-01T13:07:25;5.07;;;3.20;;
75450;SDS011;64029;48.244;9.188;2023-02-01T13:09:55;6.60;;;2.70;;
75450;SDS011;64029;48.244;9.188;2023-02-01T13:12:28;6.23;;;3.27;;
75450;SDS011;64029;48.244;9.188;2023-02-01T13:15:00;5.13;;;2.97;;
75450;SDS011;64029;48.244;9.188;2023-02-01T13:17:32;9.97;;;3.23;;
75450;SDS011;64029;48.244;9.188;2023-02-01T13:20:02;6.17;;;2.73;;
75450;SDS011;64029;48.244;9.188;2023-02-01T13:22:33;10.33;;;2.90;;
75450;SDS011;64029;48.244;9.188;2023-02-01T13:25:04;4.37;;;2.53;;
75450;SDS011;64029;48.244;9.188;2023-02-01T13:27:38;8.93;;;2.50;;
75450;SDS011;64029;48.244;9.188;2023-02-01T13:30:07;8.77;;;3.20;;
75450;SDS011;64029;48.244;9.188;2023-02-01T13:32:51;6.33;;;2.43;;
75450;SDS011;64029;48.244;9.188;2023-02-01T13:35:37;7.23;;;2.20;;
75450;SDS011;64029;48.244;9.188;2023-02-01T13:38:29;5.40;;;2.43;;
75450;SDS011;64029;48.244;9.188;2023-02-01T13:41:23;8.47;;;3.27;;
75450;SDS011;64029;48.244;9.188;2023-02-01T13:43:54;4.03;;;2.60;;
75450;SDS011;64029;48.244;9.188;2023-02-01T13:46:24;5.93;;;2.83;;
75450;SDS011;64029;48.244;9.188;2023-02-01T13:48:54;7.03;;;2.37;;
75450;SDS011;64029;48.244;9.188;2023-02-01T13:51:35;7.13;;;3.27;;
75450;SDS011;64029;48.244;9.188;2023-02-01T13:54:03;8.47;;;3.30;;
75450;SDS011;64029;48.244;9.188;2023-02-01T13:56:39;9.73;;;3.70;;
75450;SDS011;64029;48.244;9.188;2023-02-01T14:08:22;14.10;;;3.40;;
75450;SDS011;64029;48.244;9.188;2023-02-01T14:11:01;8.40;;;3.20;;
75450;SDS011;64029;48.244;9.188;2023-02-01T14:13:29;5.33;;;3.10;;
75450;SDS011;64029;48.244;9.188;2023-02-01T14:19:00;7.77;;;2.90;;
75450;SDS011;64029;48.244;9.188;2023-02-01T14:21:29;8.73;;;2.70;;
75450;SDS011;64029;48.244;9.188;2023-02-01T14:24:00;6.73;;;2.80;;
75450;SDS011;64029;48.244;9.188;2023-02-01T14:26:43;5.37;;;2.53;;
75450;SDS011;64029;48.244;9.188;2023-02-01T14:32:01;5.33;;;2.80;;
75450;SDS011;64029;48.244;9.188;2023-02-01T14:34:39;10.70;;;3.57;;
75450;SDS011;64029;48.244;9.188;2023-02-01T14:37:23;7.20;;;2.90;;
75450;SDS011;64029;48.244;9.188;2023-02-01T14:39:56;4.13;;;2.20;;
75450;SDS011;64029;48.244;9.188;2023-02-01T14:42:26;10.07;;;3.97;;
75450;SDS011;64029;48.244;9.188;2023-02-01T14:51:11;4.37;;;2.37;;
75450;SDS011;64029;48.244;9.188;2023-02-01T14:53:43;10.40;;;3.20;;
75450;SDS011;64029;48.244;9.188;2023-02-01T14:56:14;11.00;;;4.40;;
75450;SDS011;64029;48.244;9.188;2023-02-01T14:58:47;5.20;;;3.67;;
75450;SDS011;64029;48.244;9.188;2023-02-01T15:01:23;8.23;;;2.93;;
75450;SDS011;64029;48.244;9.188;2023-02-01T15:03:53;7.30;;;3.10;;
75450;SDS011;64029;48.244;9.188;2023-02-01T15:06:26;9.70;;;3.67;;
75450;SDS011;64029;48.244;9.188;2023-02-01T15:08:58;8.63;;;3.70;;
75450;SDS011;64029;48.244;9.188;2023-02-01T15:11:29;9.07;;;3.60;;
75450;SDS011;64029;48.244;9.188;2023-02-01T15:13:56;10.53;;;3.80;;
75450;SDS011;64029;48.244;9.188;2023-02-01T15:16:25;8.63;;;3.47;;
75450;SDS011;64029;48.244;9.188;2023-02-01T15:19:08;6.87;;;3.60;;
75450;SDS011;64029;48.244;9.188;2023-02-01T15:21:46;5.97;;;3.47;;
75450;SDS011;64029;48.244;9.188;2023-02-01T15:24:17;10.90;;;4.03;;
75450;SDS011;64029;48.244;9.188;2023-02-01T15:26:48;13.67;;;3.77;;
75450;SDS011;64029;48.244;9.188;2023-02-01T15:29:15;7.83;;;3.47;;
75450;SDS011;64029;48.244;9.188;2023-02-01T15:31:45;8.60;;;4.90;;
75450;SDS011;64029;48.244;9.188;2023-02-01T15:34:16;8.70;;;3.47;;
75450;SDS011;64029;48.244;9.188;2023-02-01T15:36:45;5.87;;;3.93;;
75450;SDS011;64029;48.244;9.188;2023-02-01T15:39:17;11.33;;;4.07;;